sensor_id;sensor_type;location;lat;lon;timestamp;pressure;altitude;pressure_sealevel;temperature;humidity
12211;BME280;6168;42.658;23.298;2022-09-02T00:00:54;64332.16;;;-139.92;100.00
12211;BME280;6168;42.658;23.298;2022-09-02T00:03:24;64328.00;;;-139.92;100.00
12211;BME280;6168;42.658;23.298;2022-09-02T00:05:51;64336.31;;;-139.92;100.00
12211;BME280;6168;42.658;23.298;2022-09-02T00:08:18;64330.06;;;-139.92;100.00
12211;BME280;6168;42.658;23.298;2022-09-02T00:10:45;64300.94;;;-139.92;100.00
12211;BME280;6168;42.658;23.298;2022-09-02T00:13:14;64355.06;;;-139.92;100.00
12211;BME280;6168;42.658;23.298;2022-09-02T00:15:44;64319.66;;;-139.92;100.00
12211;BME280;6168;42.658;23.298;2022-09-02T00:18:11;64319.66;;;-139.92;100.00
12211;BME280;6168;42.658;23.298;2022-09-02T00:20:40;64344.66;;;-139.92;100.00
12211;BME280;6168;42.658;23.298;2022-09-02T00:23:07;64321.75;;;-139.92;100.00
12211;BME280;6168;42.658;23.298;2022-09-02T00:25:35;64373.81;;;-139.92;100.00
12211;BME280;6168;42.658;23.298;2022-09-02T00:28:02;64363.41;;;-139.92;100.00
12211;BME280;6168;42.658;23.298;2022-09-02T00:30:30;64317.59;;;-139.92;100.00
12211;BME280;6168;42.658;23.298;2022-09-02T00:32:58;64321.75;;;-139.92;100.00
12211;BME280;6168;42.658;23.298;2022-09-02T00:35:25;64325.91;;;-139.92;100.00
12211;BME280;6168;42.658;23.298;2022-09-02T00:37:52;64328.00;;;-139.92;100.00
12211;BME280;6168;42.658;23.298;2022-09-02T00:40:19;64361.31;;;-139.92;100.00
12211;BME280;6168;42.658;23.298;2022-09-02T00:42:47;64336.31;;;-139.92;100.00
12211;BME280;6168;42.658;23.298;2022-09-02T00:45:14;64350.91;;;-139.92;100.00
12211;BME280;6168;42.658;23.298;2022-09-02T00:47:43;64313.41;;;-139.92;100.00
12211;BME280;6168;42.658;23.298;2022-09-02T00:50:13;64357.16;;;-139.92;100.00
12211;BME280;6168;42.658;23.298;2022-09-02T00:52:43;64303.00;;;-139.92;100.00
12211;BME280;6168;42.658;23.298;2022-09-02T00:55:14;64311.34;;;-139.92;100.00
12211;BME280;6168;42.658;23.298;2022-09-02T00:57:44;64357.16;;;-139.92;100.00
12211;BME280;6168;42.658;23.298;2022-09-02T01:00:16;64321.75;;;-139.92;100.00
12211;BME280;6168;42.658;23.298;2022-09-02T01:02:46;64336.31;;;-139.92;100.00
12211;BME280;6168;42.658;23.298;2022-09-02T01:05:17;64334.25;;;-139.92;100.00
12211;BME280;6168;42.658;23.298;2022-09-02T01:07:45;64303.00;;;-139.92;100.00
12211;BME280;6168;42.658;23.298;2022-09-02T01:10:16;64313.41;;;-139.92;100.00
12211;BME280;6168;42.658;23.298;2022-09-02T01:12:43;64323.81;;;-139.92;100.00
12211;BME280;6168;42.658;23.298;2022-09-02T01:15:11;64311.34;;;-139.92;100.00
12211;BME280;6168;42.658;23.298;2022-09-02T01:17:41;64328.00;;;-139.92;100.00
12211;BME280;6168;42.658;23.298;2022-09-02T01:20:12;64307.16;;;-139.92;100.00
12211;BME280;6168;42.658;23.298;2022-09-02T01:22:41;64290.50;;;-139.92;100.00
12211;BME280;6168;42.658;23.298;2022-09-02T01:25:14;64298.84;;;-139.92;100.00
12211;BME280;6168;42.658;23.298;2022-09-02T01:27:41;64311.34;;;-139.92;100.00
12211;BME280;6168;42.658;23.298;2022-09-02T01:30:11;64344.66;;;-139.92;100.00
12211;BME280;6168;42.658;23.298;2022-09-02T01:32:38;64325.91;;;-139.92;100.00
12211;BME280;6168;42.658;23.298;2022-09-02T01:35:06;64342.56;;;-139.92;100.00
12211;BME280;6168;42.658;23.298;2022-09-02T01:37:33;64282.19;;;-139.92;100.00
12211;BME280;6168;42.658;23.298;2022-09-02T01:40:06;64334.25;;;-139.92;100.00
12211;BME280;6168;42.658;23.298;2022-09-02T01:42:33;64323.81;;;-139.92;100.00
12211;BME280;6168;42.658;23.298;2022-09-02T01:45:00;64369.63;;;-139.92;100.00
12211;BME280;6168;42.658;23.298;2022-09-02T01:47:27;64355.06;;;-139.92;100.00
12211;BME280;6168;42.658;23.298;2022-09-02T01:49:54;64344.66;;;-139.92;100.00
12211;BME280;6168;42.658;23.298;2022-09-02T01:52:22;64340.50;;;-139.92;100.00
12211;BME280;6168;42.658;23.298;2022-09-02T01:54:50;64377.97;;;-139.92;100.00
12211;BME280;6168;42.658;23.298;2022-09-02T01:57:18;64384.22;;;-139.92;100.00
12211;BME280;6168;42.658;23.298;2022-09-02T01:59:49;64359.22;;;-139.92;100.00
12211;BME280;6168;42.658;23.298;2022-09-02T02:02:16;64340.50;;;-139.92;100.00
12211;BME280;6168;42.658;23.298;2022-09-02T02:04:45;64338.41;;;-139.92;100.00
12211;BME280;6168;42.658;23.298;2022-09-02T02:07:12;64328.00;;;-139.92;100.00
12211;BME280;6168;42.658;23.298;2022-09-02T02:09:39;64325.91;;;-139.92;100.00
12211;BME280;6168;42.658;23.298;2022-09-02T02:12:07;64328.00;;;-139.92;100.00
12211;BME280;6168;42.658;23.298;2022-09-02T02:14:35;64357.16;;;-139.92;100.00
12211;BME280;6168;42.658;23.298;2022-09-02T02:17:03;64340.50;;;-139.92;100.00
12211;BME280;6168;42.658;23.298;2022-09-02T02:19:30;64307.16;;;-139.92;100.00
12211;BME280;6168;42.658;23.298;2022-09-02T02:21:57;64359.22;;;-139.92;100.00
12211;BME280;6168;42.658;23.298;2022-09-02T02:24:24;64400.88;;;-139.92;100.00
12211;BME280;6168;42.658;23.298;2022-09-02T02:26:51;64340.50;;;-139.92;100.00
12211;BME280;6168;42.658;23.298;2022-09-02T02:29:18;64338.41;;;-139.92;100.00
12211;BME280;6168;42.658;23.298;2022-09-02T02:31:47;64361.31;;;-139.92;100.00
12211;BME280;6168;42.658;23.298;2022-09-02T02:34:15;64384.22;;;-139.92;100.00
12211;BME280;6168;42.658;23.298;2022-09-02T02:36:42;64361.31;;;-139.92;100.00
12211;BME280;6168;42.658;23.298;2022-09-02T02:39:10;64371.72;;;-139.92;100.00
12211;BME280;6168;42.658;23.298;2022-09-02T02:41:39;64382.13;;;-139.92;100.00
12211;BME280;6168;42.658;23.298;2022-09-02T02:44:06;64363.41;;;-139.92;100.00
12211;BME280;6168;42.658;23.298;2022-09-02T02:46:33;64357.16;;;-139.92;100.00
12211;BME280;6168;42.658;23.298;2022-09-02T02:49:03;64361.31;;;-139.92;100.00
12211;BME280;6168;42.658;23.298;2022-09-02T02:51:30;64328.00;;;-139.92;100.00
12211;BME280;6168;42.658;23.298;2022-09-02T02:53:58;64361.31;;;-139.92;100.00
12211;BME280;6168;42.658;23.298;2022-09-02T02:56:25;64334.25;;;-139.92;100.00
12211;BME280;6168;42.658;23.298;2022-09-02T02:58:52;64348.81;;;-139.92;100.00
12211;BME280;6168;42.658;23.298;2022-09-02T03:01:19;64367.56;;;-139.92;100.00
12211;BME280;6168;42.658;23.298;2022-09-02T03:03:46;64355.06;;;-139.92;100.00
12211;BME280;6168;42.658;23.298;2022-09-02T03:06:14;64384.22;;;-139.92;100.00
12211;BME280;6168;42.658;23.298;2022-09-02T03:08:41;64390.47;;;-139.92;100.00
12211;BME280;6168;42.658;23.298;2022-09-02T03:11:08;64361.31;;;-139.92;100.00
12211;BME280;6168;42.658;23.298;2022-09-02T03:13:35;64352.97;;;-139.92;100.00
12211;BME280;6168;42.658;23.298;2022-09-02T03:16:03;64390.47;;;-139.92;100.00
12211;BME280;6168;42.658;23.298;2022-09-02T03:18:30;64365.47;;;-139.92;100.00
12211;BME280;6168;42.658;23.298;2022-09-02T03:20:57;64369.63;;;-139.92;100.00
12211;BME280;6168;42.658;23.298;2022-09-02T03:23:26;64357.16;;;-139.92;100.00
12211;BME280;6168;42.658;23.298;2022-09-02T03:25:53;64355.06;;;-139.92;100.00
12211;BME280;6168;42.658;23.298;2022-09-02T03:28:20;64336.31;;;-139.92;100.00
12211;BME280;6168;42.658;23.298;2022-09-02T03:30:47;64336.31;;;-139.92;100.00
12211;BME280;6168;42.658;23.298;2022-09-02T03:33:13;64355.06;;;-139.92;100.00
12211;BME280;6168;42.658;23.298;2022-09-02T03:35:43;64352.97;;;-139.92;100.00
12211;BME280;6168;42.658;23.298;2022-09-02T03:38:11;64350.91;;;-139.92;100.00
12211;BME280;6168;42.658;23.298;2022-09-02T03:40:39;64350.91;;;-139.92;100.00
12211;BME280;6168;42.658;23.298;2022-09-02T03:43:06;64346.72;;;-139.92;100.00
12211;BME280;6168;42.658;23.298;2022-09-02T03:45:33;64361.31;;;-139.92;100.00
12211;BME280;6168;42.658;23.298;2022-09-02T03:48:01;64352.97;;;-139.92;100.00
12211;BME280;6168;42.658;23.298;2022-09-02T03:50:31;64344.66;;;-139.92;100.00
12211;BME280;6168;42.658;23.298;2022-09-02T03:52:59;64377.97;;;-139.92;100.00
12211;BME280;6168;42.658;23.298;2022-09-02T03:55:26;64369.63;;;-139.92;100.00
12211;BME280;6168;42.658;23.298;2022-09-02T03:57:55;64328.00;;;-139.92;100.00
12211;BME280;6168;42.658;23.298;2022-09-02T04:00:24;64365.47;;;-139.92;100.00
12211;BME280;6168;42.658;23.298;2022-09-02T04:02:53;64352.97;;;-139.92;100.00
12211;BME280;6168;42.658;23.298;2022-09-02T04:05:21;64342.56;;;-139.92;100.00
12211;BME280;6168;42.658;23.298;2022-09-02T04:07:48;64344.66;;;-139.92;100.00
12211;BME280;6168;42.658;23.298;2022-09-02T04:10:17;64371.72;;;-139.92;100.00
12211;BME280;6168;42.658;23.298;2022-09-02T04:12:45;64357.16;;;-139.92;100.00
12211;BME280;6168;42.658;23.298;2022-09-02T04:15:13;64365.47;;;-139.92;100.00
12211;BME280;6168;42.658;23.298;2022-09-02T04:17:41;64355.06;;;-139.92;100.00
12211;BME280;6168;42.658;23.298;2022-09-02T04:20:10;64363.41;;;-139.92;100.00
12211;BME280;6168;42.658;23.298;2022-09-02T04:22:37;64325.91;;;-139.92;100.00
12211;BME280;6168;42.658;23.298;2022-09-02T04:25:06;64373.81;;;-139.92;100.00
12211;BME280;6168;42.658;23.298;2022-09-02T04:27:34;64361.31;;;-139.92;100.00
12211;BME280;6168;42.658;23.298;2022-09-02T04:30:01;64361.31;;;-139.92;100.00
12211;BME280;6168;42.658;23.298;2022-09-02T04:32:30;64348.81;;;-139.92;100.00
12211;BME280;6168;42.658;23.298;2022-09-02T04:34:57;64342.56;;;-139.92;100.00
12211;BME280;6168;42.658;23.298;2022-09-02T04:37:24;64334.25;;;-139.92;100.00
12211;BME280;6168;42.658;23.298;2022-09-02T04:39:52;64373.81;;;-139.92;100.00
12211;BME280;6168;42.658;23.298;2022-09-02T04:42:19;64344.66;;;-139.92;100.00
12211;BME280;6168;42.658;23.298;2022-09-02T04:44:46;64330.06;;;-139.92;100.00
12211;BME280;6168;42.658;23.298;2022-09-02T04:47:13;64359.22;;;-139.92;100.00
12211;BME280;6168;42.658;23.298;2022-09-02T04:49:41;64355.06;;;-139.92;100.00
12211;BME280;6168;42.658;23.298;2022-09-02T04:52:08;64357.16;;;-139.92;100.00
12211;BME280;6168;42.658;23.298;2022-09-02T04:54:36;64359.22;;;-139.92;100.00
12211;BME280;6168;42.658;23.298;2022-09-02T04:57:03;64377.97;;;-139.92;100.00
12211;BME280;6168;42.658;23.298;2022-09-02T04:59:30;64355.06;;;-139.92;100.00
12211;BME280;6168;42.658;23.298;2022-09-02T05:02:00;64390.47;;;-139.92;100.00
12211;BME280;6168;42.658;23.298;2022-09-02T05:04:27;64340.50;;;-139.92;100.00
12211;BME280;6168;42.658;23.298;2022-09-02T05:06:57;64365.47;;;-139.92;100.00
12211;BME280;6168;42.658;23.298;2022-09-02T05:09:26;64342.56;;;-139.92;100.00
12211;BME280;6168;42.658;23.298;2022-09-02T05:11:53;64323.81;;;-139.92;100.00
12211;BME280;6168;42.658;23.298;2022-09-02T05:14:22;64338.41;;;-139.92;100.00
12211;BME280;6168;42.658;23.298;2022-09-02T05:16:50;64352.97;;;-139.92;100.00
12211;BME280;6168;42.658;23.298;2022-09-02T05:19:18;64363.41;;;-139.92;100.00
12211;BME280;6168;42.658;23.298;2022-09-02T05:21:46;64332.16;;;-139.92;100.00
12211;BME280;6168;42.658;23.298;2022-09-02T05:24:16;64334.25;;;-139.92;100.00
12211;BME280;6168;42.658;23.298;2022-09-02T05:26:43;64382.13;;;-139.92;100.00
12211;BME280;6168;42.658;23.298;2022-09-02T05:29:10;64328.00;;;-139.92;100.00
12211;BME280;6168;42.658;23.298;2022-09-02T05:31:38;64352.97;;;-139.92;100.00
12211;BME280;6168;42.658;23.298;2022-09-02T05:34:06;64355.06;;;-139.92;100.00
12211;BME280;6168;42.658;23.298;2022-09-02T05:36:33;64357.16;;;-139.92;100.00
12211;BME280;6168;42.658;23.298;2022-09-02T05:39:01;64355.06;;;-139.92;100.00
12211;BME280;6168;42.658;23.298;2022-09-02T05:41:30;64365.47;;;-139.92;100.00
12211;BME280;6168;42.658;23.298;2022-09-02T05:44:00;64357.16;;;-139.92;100.00
12211;BME280;6168;42.658;23.298;2022-09-02T05:46:28;64332.16;;;-139.92;100.00
12211;BME280;6168;42.658;23.298;2022-09-02T05:48:55;64352.97;;;-139.92;100.00
12211;BME280;6168;42.658;23.298;2022-09-02T05:51:33;64355.06;;;-139.92;100.00
12211;BME280;6168;42.658;23.298;2022-09-02T05:54:02;64336.31;;;-139.92;100.00
12211;BME280;6168;42.658;23.298;2022-09-02T05:56:31;64336.31;;;-139.92;100.00
12211;BME280;6168;42.658;23.298;2022-09-02T05:58:58;64352.97;;;-139.92;100.00
12211;BME280;6168;42.658;23.298;2022-09-02T06:01:25;64336.31;;;-139.92;100.00
12211;BME280;6168;42.658;23.298;2022-09-02T06:03:52;64315.50;;;-139.92;100.00
12211;BME280;6168;42.658;23.298;2022-09-02T06:06:19;64365.47;;;-139.92;100.00
12211;BME280;6168;42.658;23.298;2022-09-02T06:08:47;64338.41;;;-139.92;100.00
12211;BME280;6168;42.658;23.298;2022-09-02T06:11:14;64348.81;;;-139.92;100.00
12211;BME280;6168;42.658;23.298;2022-09-02T06:13:45;64348.81;;;-139.92;100.00
12211;BME280;6168;42.658;23.298;2022-09-02T06:16:14;64328.00;;;-139.92;100.00
12211;BME280;6168;42.658;23.298;2022-09-02T06:18:42;64346.72;;;-139.92;100.00
12211;BME280;6168;42.658;23.298;2022-09-02T06:21:09;64352.97;;;-139.92;100.00
12211;BME280;6168;42.658;23.298;2022-09-02T06:23:37;64321.75;;;-139.92;100.00
12211;BME280;6168;42.658;23.298;2022-09-02T06:26:05;64344.66;;;-139.92;100.00
12211;BME280;6168;42.658;23.298;2022-09-02T06:28:32;64328.00;;;-139.92;100.00
12211;BME280;6168;42.658;23.298;2022-09-02T06:31:06;64332.16;;;-139.92;100.00
12211;BME280;6168;42.658;23.298;2022-09-02T06:33:33;64290.50;;;-139.92;100.00
12211;BME280;6168;42.658;23.298;2022-09-02T06:36:00;64321.75;;;-139.92;100.00
12211;BME280;6168;42.658;23.298;2022-09-02T06:38:27;64305.09;;;-139.92;100.00
12211;BME280;6168;42.658;23.298;2022-09-02T06:40:54;64307.16;;;-139.92;100.00
12211;BME280;6168;42.658;23.298;2022-09-02T06:43:21;64357.16;;;-139.92;100.00
12211;BME280;6168;42.658;23.298;2022-09-02T06:45:49;64332.16;;;-139.92;100.00
12211;BME280;6168;42.658;23.298;2022-09-02T06:48:17;64309.25;;;-139.92;100.00
12211;BME280;6168;42.658;23.298;2022-09-02T06:50:45;64338.41;;;-139.92;100.00
12211;BME280;6168;42.658;23.298;2022-09-02T06:53:13;64357.16;;;-139.92;100.00
12211;BME280;6168;42.658;23.298;2022-09-02T06:55:43;64357.16;;;-139.92;100.00
12211;BME280;6168;42.658;23.298;2022-09-02T06:58:11;64332.16;;;-139.92;100.00
12211;BME280;6168;42.658;23.298;2022-09-02T07:00:39;64311.34;;;-139.92;100.00
12211;BME280;6168;42.658;23.298;2022-09-02T07:03:07;64303.00;;;-139.92;100.00
12211;BME280;6168;42.658;23.298;2022-09-02T07:06:03;64332.16;;;-139.92;100.00
12211;BME280;6168;42.658;23.298;2022-09-02T07:08:34;64323.81;;;-139.92;100.00
12211;BME280;6168;42.658;23.298;2022-09-02T07:11:01;64300.94;;;-139.92;100.00
12211;BME280;6168;42.658;23.298;2022-09-02T07:13:28;64305.09;;;-139.92;100.00
12211;BME280;6168;42.658;23.298;2022-09-02T07:15:55;64323.81;;;-139.92;100.00
12211;BME280;6168;42.658;23.298;2022-09-02T07:18:22;64350.91;;;-139.92;100.00
12211;BME280;6168;42.658;23.298;2022-09-02T07:20:49;64315.50;;;-139.92;100.00
12211;BME280;6168;42.658;23.298;2022-09-02T07:23:17;64344.66;;;-139.92;100.00
12211;BME280;6168;42.658;23.298;2022-09-02T07:25:45;64321.75;;;-139.92;100.00
12211;BME280;6168;42.658;23.298;2022-09-02T07:28:12;64303.00;;;-139.92;100.00
12211;BME280;6168;42.658;23.298;2022-09-02T07:30:40;64294.69;;;-139.92;100.00
12211;BME280;6168;42.658;23.298;2022-09-02T07:33:08;64278.03;;;-139.92;100.00
12211;BME280;6168;42.658;23.298;2022-09-02T07:35:38;64298.84;;;-139.92;100.00
12211;BME280;6168;42.658;23.298;2022-09-02T07:38:06;64303.00;;;-139.92;100.00
12211;BME280;6168;42.658;23.298;2022-09-02T07:40:35;64315.50;;;-139.92;100.00
12211;BME280;6168;42.658;23.298;2022-09-02T07:43:03;64315.50;;;-139.92;100.00
12211;BME280;6168;42.658;23.298;2022-09-02T07:45:30;64298.84;;;-139.92;100.00
12211;BME280;6168;42.658;23.298;2022-09-02T07:47:58;64317.59;;;-139.92;100.00
12211;BME280;6168;42.658;23.298;2022-09-02T07:50:25;64319.66;;;-139.92;100.00
12211;BME280;6168;42.658;23.298;2022-09-02T07:52:53;64290.50;;;-139.92;100.00
12211;BME280;6168;42.658;23.298;2022-09-02T07:55:21;64278.03;;;-139.92;100.00
12211;BME280;6168;42.658;23.298;2022-09-02T07:57:50;64232.22;;;-139.92;100.00
12211;BME280;6168;42.658;23.298;2022-09-02T08:00:19;64309.25;;;-139.92;100.00
12211;BME280;6168;42.658;23.298;2022-09-02T08:02:47;64311.34;;;-139.92;100.00
12211;BME280;6168;42.658;23.298;2022-09-02T08:05:14;64286.34;;;-139.92;100.00
12211;BME280;6168;42.658;23.298;2022-09-02T08:07:41;64315.50;;;-139.92;100.00
12211;BME280;6168;42.658;23.298;2022-09-02T08:10:09;64321.75;;;-139.92;100.00
12211;BME280;6168;42.658;23.298;2022-09-02T08:12:38;64284.25;;;-139.92;100.00
12211;BME280;6168;42.658;23.298;2022-09-02T08:15:08;64273.84;;;-139.92;100.00
12211;BME280;6168;42.658;23.298;2022-09-02T08:17:35;64307.16;;;-139.92;100.00
12211;BME280;6168;42.658;23.298;2022-09-02T08:20:06;64315.50;;;-139.92;100.00
12211;BME280;6168;42.658;23.298;2022-09-02T08:22:33;64271.78;;;-139.92;100.00
12211;BME280;6168;42.658;23.298;2022-09-02T08:25:00;64284.25;;;-139.92;100.00
12211;BME280;6168;42.658;23.298;2022-09-02T08:27:27;64298.84;;;-139.92;100.00
12211;BME280;6168;42.658;23.298;2022-09-02T08:29:54;64253.03;;;-139.92;100.00
12211;BME280;6168;42.658;23.298;2022-09-02T08:32:22;64290.50;;;-139.92;100.00
12211;BME280;6168;42.658;23.298;2022-09-02T08:34:49;64257.19;;;-139.92;100.00
12211;BME280;6168;42.658;23.298;2022-09-02T08:37:16;64290.50;;;-139.92;100.00
12211;BME280;6168;42.658;23.298;2022-09-02T08:39:43;64311.34;;;-139.92;100.00
12211;BME280;6168;42.658;23.298;2022-09-02T08:42:15;64286.34;;;-139.92;100.00
12211;BME280;6168;42.658;23.298;2022-09-02T08:44:44;64315.50;;;-139.92;100.00
12211;BME280;6168;42.658;23.298;2022-09-02T08:47:15;64307.16;;;-139.92;100.00
12211;BME280;6168;42.658;23.298;2022-09-02T08:49:47;64307.16;;;-139.92;100.00
12211;BME280;6168;42.658;23.298;2022-09-02T08:52:21;64344.66;;;-139.92;100.00
12211;BME280;6168;42.658;23.298;2022-09-02T08:54:54;64267.59;;;-139.92;100.00
12211;BME280;6168;42.658;23.298;2022-09-02T08:57:21;64257.19;;;-139.92;100.00
12211;BME280;6168;42.658;23.298;2022-09-02T08:59:49;64294.69;;;-139.92;100.00
12211;BME280;6168;42.658;23.298;2022-09-02T09:02:23;64330.06;;;-139.92;100.00
12211;BME280;6168;42.658;23.298;2022-09-02T09:05:13;64284.25;;;-139.92;100.00
12211;BME280;6168;42.658;23.298;2022-09-02T09:07:58;64265.53;;;-139.92;100.00
12211;BME280;6168;42.658;23.298;2022-09-02T09:10:37;64307.16;;;-139.92;100.00
12211;BME280;6168;42.658;23.298;2022-09-02T09:16:18;64250.94;;;-139.92;100.00
12211;BME280;6168;42.658;23.298;2022-09-02T09:18:54;64286.34;;;-139.92;100.00
12211;BME280;6168;42.658;23.298;2022-09-02T09:21:26;64303.00;;;-139.92;100.00
12211;BME280;6168;42.658;23.298;2022-09-02T09:23:54;64259.28;;;-139.92;100.00
12211;BME280;6168;42.658;23.298;2022-09-02T09:26:25;64238.44;;;-139.92;100.00
12211;BME280;6168;42.658;23.298;2022-09-02T09:28:54;64259.28;;;-139.92;100.00
12211;BME280;6168;42.658;23.298;2022-09-02T09:31:28;64248.88;;;-139.92;100.00
12211;BME280;6168;42.658;23.298;2022-09-02T09:33:56;64259.28;;;-139.92;100.00
12211;BME280;6168;42.658;23.298;2022-09-02T09:36:46;64253.03;;;-139.92;100.00
12211;BME280;6168;42.658;23.298;2022-09-02T09:39:22;64255.13;;;-139.92;100.00
12211;BME280;6168;42.658;23.298;2022-09-02T09:41:59;64198.88;;;-139.92;100.00
12211;BME280;6168;42.658;23.298;2022-09-02T09:44:39;64238.44;;;-139.92;100.00
12211;BME280;6168;42.658;23.298;2022-09-02T09:47:11;64248.88;;;-139.92;100.00
12211;BME280;6168;42.658;23.298;2022-09-02T09:49:40;64244.69;;;-139.92;100.00
12211;BME280;6168;42.658;23.298;2022-09-02T09:52:08;64234.28;;;-139.92;100.00
12211;BME280;6168;42.658;23.298;2022-09-02T09:54:35;64234.28;;;-139.92;100.00
12211;BME280;6168;42.658;23.298;2022-09-02T09:57:16;64250.94;;;-139.92;100.00
12211;BME280;6168;42.658;23.298;2022-09-02T09:59:46;64203.06;;;-139.92;100.00
12211;BME280;6168;42.658;23.298;2022-09-02T10:02:25;64221.78;;;-139.92;100.00
12211;BME280;6168;42.658;23.298;2022-09-02T10:04:53;64244.69;;;-139.92;100.00
12211;BME280;6168;42.658;23.298;2022-09-02T10:07:36;64286.34;;;-139.92;100.00
12211;BME280;6168;42.658;23.298;2022-09-02T10:10:18;64269.69;;;-139.92;100.00
12211;BME280;6168;42.658;23.298;2022-09-02T10:12:47;64225.97;;;-139.92;100.00
12211;BME280;6168;42.658;23.298;2022-09-02T10:15:18;64232.22;;;-139.92;100.00
12211;BME280;6168;42.658;23.298;2022-09-02T10:17:54;64292.59;;;-139.92;100.00
12211;BME280;6168;42.658;23.298;2022-09-02T10:20:30;64217.63;;;-139.92;100.00
12211;BME280;6168;42.658;23.298;2022-09-02T10:23:11;64273.84;;;-139.92;100.00
12211;BME280;6168;42.658;23.298;2022-09-02T10:25:52;64196.81;;;-139.92;100.00
12211;BME280;6168;42.658;23.298;2022-09-02T10:28:35;64248.88;;;-139.92;100.00
12211;BME280;6168;42.658;23.298;2022-09-02T10:31:10;64225.97;;;-139.92;100.00
12211;BME280;6168;42.658;23.298;2022-09-02T10:33:45;64236.38;;;-139.92;100.00
12211;BME280;6168;42.658;23.298;2022-09-02T10:36:23;64219.72;;;-139.92;100.00
12211;BME280;6168;42.658;23.298;2022-09-02T10:39:03;64269.69;;;-139.92;100.00
12211;BME280;6168;42.658;23.298;2022-09-02T10:41:39;64194.72;;;-139.92;100.00
12211;BME280;6168;42.658;23.298;2022-09-02T10:44:23;64232.22;;;-139.92;100.00
12211;BME280;6168;42.658;23.298;2022-09-02T10:46:58;64223.88;;;-139.92;100.00
12211;BME280;6168;42.658;23.298;2022-09-02T10:52:31;64246.78;;;-139.92;100.00
12211;BME280;6168;42.658;23.298;2022-09-02T10:55:13;64194.72;;;-139.92;100.00
12211;BME280;6168;42.658;23.298;2022-09-02T10:57:45;64211.38;;;-139.92;100.00
12211;BME280;6168;42.658;23.298;2022-09-02T11:00:16;64203.06;;;-139.92;100.00
12211;BME280;6168;42.658;23.298;2022-09-02T11:02:46;64213.47;;;-139.92;100.00
12211;BME280;6168;42.658;23.298;2022-09-02T11:05:24;64219.72;;;-139.92;100.00
12211;BME280;6168;42.658;23.298;2022-09-02T11:07:54;64225.97;;;-139.92;100.00
12211;BME280;6168;42.658;23.298;2022-09-02T11:10:30;64223.88;;;-139.92;100.00
12211;BME280;6168;42.658;23.298;2022-09-02T11:13:02;64180.16;;;-139.92;100.00
12211;BME280;6168;42.658;23.298;2022-09-02T11:15:39;64178.06;;;-139.92;100.00
12211;BME280;6168;42.658;23.298;2022-09-02T11:18:12;64223.88;;;-139.92;100.00
12211;BME280;6168;42.658;23.298;2022-09-02T11:20:46;64200.97;;;-139.92;100.00
12211;BME280;6168;42.658;23.298;2022-09-02T11:23:22;64219.72;;;-139.92;100.00
12211;BME280;6168;42.658;23.298;2022-09-02T11:25:56;64203.06;;;-139.92;100.00
12211;BME280;6168;42.658;23.298;2022-09-02T11:28:34;64178.06;;;-139.92;100.00
12211;BME280;6168;42.658;23.298;2022-09-02T11:31:06;64153.09;;;-139.92;100.00
12211;BME280;6168;42.658;23.298;2022-09-02T11:33:45;64215.56;;;-139.92;100.00
12211;BME280;6168;42.658;23.298;2022-09-02T11:36:15;64209.31;;;-139.92;100.00
12211;BME280;6168;42.658;23.298;2022-09-02T11:38:46;64176.00;;;-139.92;100.00
12211;BME280;6168;42.658;23.298;2022-09-02T11:41:44;64207.22;;;-139.92;100.00
12211;BME280;6168;42.658;23.298;2022-09-02T11:44:39;64203.06;;;-139.92;100.00
12211;BME280;6168;42.658;23.298;2022-09-02T11:47:32;64194.72;;;-139.92;100.00
12211;BME280;6168;42.658;23.298;2022-09-02T11:53:19;64219.72;;;-139.92;100.00
12211;BME280;6168;42.658;23.298;2022-09-02T11:55:53;64242.63;;;-139.92;100.00
12211;BME280;6168;42.658;23.298;2022-09-02T11:58:37;64194.72;;;-139.92;100.00
12211;BME280;6168;42.658;23.298;2022-09-02T12:01:25;64186.41;;;-139.92;100.00
12211;BME280;6168;42.658;23.298;2022-09-02T12:03:58;64217.63;;;-139.92;100.00
12211;BME280;6168;42.658;23.298;2022-09-02T12:06:26;64223.88;;;-139.92;100.00
12211;BME280;6168;42.658;23.298;2022-09-02T12:09:08;64213.47;;;-139.92;100.00
12211;BME280;6168;42.658;23.298;2022-09-02T12:11:49;64157.25;;;-139.92;100.00
12211;BME280;6168;42.658;23.298;2022-09-02T12:17:38;64196.81;;;-139.92;100.00
12211;BME280;6168;42.658;23.298;2022-09-02T12:20:09;64200.97;;;-139.92;100.00
12211;BME280;6168;42.658;23.298;2022-09-02T12:22:38;64194.72;;;-139.92;100.00
12211;BME280;6168;42.658;23.298;2022-09-02T12:25:35;64205.13;;;-139.92;100.00
12211;BME280;6168;42.658;23.298;2022-09-02T12:28:24;64169.75;;;-139.92;100.00
12211;BME280;6168;42.658;23.298;2022-09-02T12:31:14;64134.34;;;-139.92;100.00
12211;BME280;6168;42.658;23.298;2022-09-02T12:33:45;64211.38;;;-139.92;100.00
12211;BME280;6168;42.658;23.298;2022-09-02T12:36:45;64200.97;;;-139.92;100.00
12211;BME280;6168;42.658;23.298;2022-09-02T12:39:53;64182.22;;;-139.92;100.00
12211;BME280;6168;42.658;23.298;2022-09-02T12:42:26;64184.31;;;-139.92;100.00
12211;BME280;6168;42.658;23.298;2022-09-02T12:45:03;64242.63;;;-139.92;100.00
12211;BME280;6168;42.658;23.298;2022-09-02T12:47:41;64188.47;;;-139.92;100.00
12211;BME280;6168;42.658;23.298;2022-09-02T12:50:24;64184.31;;;-139.92;100.00
12211;BME280;6168;42.658;23.298;2022-09-02T12:53:05;64186.41;;;-139.92;100.00
12211;BME280;6168;42.658;23.298;2022-09-02T12:55:33;64200.97;;;-139.92;100.00
12211;BME280;6168;42.658;23.298;2022-09-02T12:58:07;64242.63;;;-139.92;100.00
12211;BME280;6168;42.658;23.298;2022-09-02T13:00:40;64207.22;;;-139.92;100.00